Time;durP1;ratioP1;P1;durP2;ratioP2;P2;SDS_P1;SDS_P2;PMS_P1;PMS_P2;Temp;Humidity;BMP_temperature;BMP_pressure;BME280_temperature;BME280_humidity;BME280_pressure;Samples;Min_cycle;Max_cycle;Signal;HPM_P1;HPM_P2
2023/06/17 00:00:07;;;;;;;7.30;6.10;;;;;;;-128.00;-1.00;-1.00;97742;296;1004103;-32
2023/06/17 00:02:34;;;;;;;8.60;6.80;;;;;;;-128.00;-1.00;-1.00;97928;297;1003460;-29
2023/06/17 00:05:04;;;;;;;9.80;5.50;;;;;;;-128.00;-1.00;-1.00;97912;297;1003899;-33
2023/06/17 00:07:29;;;;;;;8.60;7.00;;;;;;;-128.00;-1.00;-1.00;85063;284;4417073;-30
2023/06/17 00:09:55;;;;;;;10.20;7.50;;;;;;;-128.00;-1.00;-1.00;30710;284;7506056;-30
2023/06/17 00:12:22;;;;;;;7.00;5.70;;;;;;;-128.00;-1.00;-1.00;66910;296;4503692;-35
2023/06/17 00:14:48;;;;;;;9.70;6.60;;;;;;;-128.00;-1.00;-1.00;97844;284;1004004;-30
2023/06/17 00:17:14;;;;;;;6.30;5.40;;;;;;;-128.00;-1.00;-1.00;97848;296;1004318;-34
2023/06/17 00:19:40;;;;;;;9.30;7.40;;;;;;;-128.00;-1.00;-1.00;97753;297;1004043;-30
2023/06/17 00:22:08;;;;;;;9.80;6.50;;;;;;;-128.00;-1.00;-1.00;97816;296;1003872;-34
2023/06/17 00:24:35;;;;;;;11.10;7.20;;;;;;;-128.00;-1.00;-1.00;97873;296;1003772;-34
2023/06/17 00:27:01;;;;;;;8.70;6.40;;;;;;;-128.00;-1.00;-1.00;97905;296;1002987;-36
2023/06/17 00:29:27;;;;;;;7.90;6.70;;;;;;;-128.00;-1.00;-1.00;97784;297;1003575;-35
2023/06/17 00:31:52;;;;;;;8.20;6.70;;;;;;;-128.00;-1.00;-1.00;97753;296;1004764;-29
2023/06/17 00:34:18;;;;;;;9.10;8.00;;;;;;;-128.00;-1.00;-1.00;97902;296;1013655;-31
2023/06/17 00:36:43;;;;;;;7.70;7.00;;;;;;;-128.00;-1.00;-1.00;97483;296;1002960;-31
2023/06/17 01:19:18;;;;;;;15.00;12.50;;;;;;;-100.42;19.20;19808.91;19595;297;8044592;-36
2023/06/17 01:21:48;;;;;;;9.30;8.30;;;;;;;-128.00;-1.00;-1.00;18172;296;7504819;-35
2023/06/17 01:24:30;;;;;;;12.60;9.20;;;;;;;-128.00;-1.00;-1.00;18460;296;7505761;-31
2023/06/17 01:26:57;;;;;;;10.90;9.80;;;;;;;-128.00;-1.00;-1.00;18455;348;7506019;-35
2023/06/17 01:29:23;;;;;;;12.10;9.30;;;;;;;-128.00;-1.00;-1.00;18496;308;7504635;-35
2023/06/17 01:31:50;;;;;;;16.60;10.10;;;;;;;-128.00;-1.00;-1.00;18495;285;7506126;-32
2023/06/17 01:34:19;;;;;;;13.80;10.00;;;;;;;-128.00;-1.00;-1.00;18456;320;7504338;-35
2023/06/17 01:40:17;;;;;;;12.90;10.50;;;;;;;;;;100892;300;542518;-36
2023/06/17 01:42:44;;;;;;;18.50;9.50;;;;;;;;;;101017;302;22586;-30
2023/06/17 01:45:09;;;;;;;13.20;9.60;;;;;;;;;;100929;302;24176;-30
2023/06/17 01:47:35;;;;;;;10.40;8.70;;;;;;;;;;101279;302;22624;-30
2023/06/17 01:50:01;;;;;;;12.50;9.50;;;;;;;;;;100958;302;22583;-30
2023/06/17 01:52:27;;;;;;;11.70;8.80;;;;;;;;;;100974;302;22585;-33
2023/06/17 01:54:53;;;;;;;15.00;9.30;;;;;;;;;;100998;300;600732;-30
2023/06/17 01:57:18;;;;;;;12.20;9.30;;;;;;;;;;101362;300;23039;-34
2023/06/17 01:59:44;;;;;;;19.20;11.60;;;;;;;;;;101188;300;25425;-29
2023/06/17 02:02:09;;;;;;;12.90;8.40;;;;;;;;;;101440;289;23001;-34
2023/06/17 02:04:35;;;;;;;16.10;11.10;;;;;;;;;;101293;300;22678;-30
2023/06/17 02:07:01;;;;;;;12.20;9.30;;;;;;;;;;101105;300;22610;-34
2023/06/17 02:09:27;;;;;;;14.50;9.70;;;;;;;;;;101239;300;22892;-30
2023/06/17 02:11:52;;;;;;;13.50;11.10;;;;;;;;;;101093;300;22699;-34
2023/06/17 02:14:18;;;;;;;13.70;10.40;;;;;;;;;;100997;300;22640;-34
2023/06/17 02:16:44;;;;;;;19.00;8.50;;;;;;;;;;100962;300;24103;-30
2023/06/17 02:19:10;;;;;;;12.10;8.00;;;;;;;;;;101216;302;22889;-33
2023/06/17 02:21:35;;;;;;;11.50;6.50;;;;;;;;;;101132;300;24245;-29
2023/06/17 02:24:00;;;;;;;13.30;6.10;;;;;;;;;;101413;300;22613;-31
2023/06/17 02:26:26;;;;;;;12.80;6.20;;;;;;;;;;101158;300;22699;-35
2023/06/17 02:28:52;;;;;;;14.10;9.50;;;;;;;;;;101117;300;22680;-34
2023/06/17 02:31:18;;;;;;;17.40;10.20;;;;;;;;;;101074;300;22889;-30
2023/06/17 02:33:43;;;;;;;18.10;10.20;;;;;;;;;;101200;300;22855;-34
2023/06/17 02:36:09;;;;;;;18.90;13.30;;;;;;;;;;101020;300;23015;-37
2023/06/17 02:38:35;;;;;;;17.90;11.90;;;;;;;;;;101121;300;22587;-30
2023/06/17 02:41:01;;;;;;;15.40;9.00;;;;;;;;;;101277;289;25751;-35
2023/06/17 02:43:26;;;;;;;15.10;9.70;;;;;;;;;;101495;300;24245;-31
2023/06/17 02:45:52;;;;;;;16.70;8.20;;;;;;;;;;101051;300;22731;-31
2023/06/17 02:48:17;;;;;;;17.80;11.20;;;;;;;;;;100983;300;22629;-30
2023/06/17 02:50:43;;;;;;;18.80;13.50;;;;;;;;;;101218;300;22890;-34
2023/06/17 02:53:10;;;;;;;23.00;11.20;;;;;;;;;;101351;301;22580;-29
2023/06/17 02:55:35;;;;;;;16.80;10.40;;;;;;;;;;101114;301;22888;-32
2023/06/17 02:58:02;;;;;;;19.20;13.00;;;;;;;;;;101213;301;22532;-34
2023/06/17 03:00:28;;;;;;;32.00;13.50;;;;;;;;;;101224;301;22889;-35
2023/06/17 03:02:53;;;;;;;40.00;13.10;;;;;;;;;;101086;301;22680;-31
2023/06/17 03:05:19;;;;;;;19.10;11.40;;;;;;;;;;101160;301;22676;-34
2023/06/17 03:07:45;;;;;;;16.70;11.70;;;;;;;;;;101264;301;22967;-34
2023/06/17 03:10:11;;;;;;;22.50;14.20;;;;;;;;;;101301;301;22885;-31
2023/06/17 03:12:36;;;;;;;61.20;12.20;;;;;;;;;;101371;301;24359;-35
2023/06/17 03:15:02;;;;;;;46.50;14.80;;;;;;;;;;101284;301;22580;-31
2023/06/17 03:17:28;;;;;;;22.70;14.20;;;;;;;;;;101041;301;22582;-30
2023/06/17 03:19:54;;;;;;;36.30;14.30;;;;;;;;;;100969;301;23046;-30
2023/06/17 03:22:19;;;;;;;50.00;14.90;;;;;;;;;;101119;301;24383;-30
2023/06/17 03:24:45;;;;;;;67.80;14.50;;;;;;;;;;101111;301;22676;-31
2023/06/17 03:27:11;;;;;;;41.60;13.00;;;;;;;;;;101333;289;22607;-34
2023/06/17 03:29:36;;;;;;;40.90;13.20;;;;;;;;;;101060;301;22980;-37
2023/06/17 03:32:02;;;;;;;30.50;11.10;;;;;;;;;;101320;301;22592;-36
2023/06/17 03:34:28;;;;;;;39.60;13.30;;;;;;;;;;101245;301;22673;-34
2023/06/17 03:36:53;;;;;;;37.10;11.60;;;;;;;;;;101437;301;22892;-34
2023/06/17 03:39:19;;;;;;;25.70;8.40;;;;;;;;;;101209;301;22576;-31
2023/06/17 03:41:44;;;;;;;14.50;10.50;;;;;;;;;;101198;301;22667;-31
2023/06/17 03:44:10;;;;;;;28.00;8.20;;;;;;;;;;101010;301;22997;-31
2023/06/17 03:46:36;;;;;;;32.30;11.80;;;;;;;;;;101194;301;24302;-34
2023/06/17 03:49:02;;;;;;;27.80;12.60;;;;;;;;;;101023;301;22582;-35
2023/06/17 03:51:27;;;;;;;32.80;11.10;;;;;;;;;;100983;301;23014;-31
2023/06/17 03:53:53;;;;;;;34.60;11.70;;;;;;;;;;100978;301;22889;-34
2023/06/17 03:56:18;;;;;;;24.30;11.50;;;;;;;;;;101015;301;22889;-34
2023/06/17 03:58:44;;;;;;;16.60;11.20;;;;;;;;;;101172;289;22582;-33
2023/06/17 04:01:12;;;;;;;11.50;9.30;;;;;;;;;;101203;301;22663;-33
2023/06/17 04:03:40;;;;;;;17.00;12.30;;;;;;;;;;101153;301;22595;-30
2023/06/17 04:06:06;;;;;;;25.70;13.50;;;;;;;;;;101265;301;22889;-35
2023/06/17 04:08:32;;;;;;;17.40;12.60;;;;;;;;;;101081;301;23044;-35
2023/06/17 04:10:58;;;;;;;21.80;11.30;;;;;;;;;;101098;301;23479;-31
2023/06/17 04:13:24;;;;;;;8.50;6.90;;;;;;;;;;101384;300;22586;-31
2023/06/17 04:15:50;;;;;;;18.40;12.30;;;;;;;;;;101262;300;22889;-35
2023/06/17 04:18:15;;;;;;;14.30;9.60;;;;;;;;;;101252;289;24266;-34
2023/06/17 04:20:41;;;;;;;16.80;10.60;;;;;;;;;;101486;300;22679;-29
2023/06/17 04:23:06;;;;;;;17.50;12.40;;;;;;;;;;101192;300;22576;-35
2023/06/17 04:25:32;;;;;;;20.70;11.60;;;;;;;;;;101310;300;22578;-31
2023/06/17 04:27:58;;;;;;;22.40;12.80;;;;;;;;;;101249;300;22579;-34
2023/06/17 04:30:25;;;;;;;15.30;10.50;;;;;;;;;;101435;300;22616;-31
2023/06/17 04:32:54;;;;;;;18.40;12.20;;;;;;;;;;101212;300;22676;-36
2023/06/17 04:35:20;;;;;;;22.50;12.60;;;;;;;;;;101065;289;22886;-33
2023/06/17 04:37:53;;;;;;;19.50;11.60;;;;;;;;;;101050;301;22673;-30
2023/06/17 04:40:20;;;;;;;17.40;12.50;;;;;;;;;;101443;300;22669;-30
2023/06/17 04:42:47;;;;;;;22.60;14.40;;;;;;;;;;101322;298;23471;-30
2023/06/17 04:45:13;;;;;;;21.00;12.80;;;;;;;;;;101422;299;22575;-34
2023/06/17 04:47:38;;;;;;;19.80;10.40;;;;;;;;;;101400;298;22676;-34
2023/06/17 04:50:04;;;;;;;17.50;12.60;;;;;;;;;;101404;298;22885;-31
2023/06/17 04:52:31;;;;;;;20.80;12.00;;;;;;;;;;101338;297;22674;-31
2023/06/17 04:54:56;;;;;;;17.20;12.70;;;;;;;;;;101414;298;22802;-30
2023/06/17 04:57:22;;;;;;;16.90;11.20;;;;;;;;;;101352;297;22916;-34
2023/06/17 04:59:48;;;;;;;21.60;10.50;;;;;;;;;;101448;297;24118;-31
2023/06/17 05:02:13;;;;;;;18.90;9.20;;;;;;;;;;101390;298;23833;-34
2023/06/17 05:04:39;;;;;;;13.10;7.20;;;;;;;;;;101351;298;22973;-31
2023/06/17 05:07:04;;;;;;;14.40;9.20;;;;;;;;;;101419;298;22577;-33
2023/06/17 05:09:30;;;;;;;17.90;12.70;;;;;;;;;;101473;298;22667;-33
2023/06/17 05:11:56;;;;;;;14.50;10.20;;;;;;;;;;101380;298;22889;-36
2023/06/17 05:14:21;;;;;;;16.30;11.40;;;;;;;;;;101361;298;22610;-34
2023/06/17 05:16:47;;;;;;;17.80;12.80;;;;;;;;;;101361;298;22964;-34
2023/06/17 05:19:12;;;;;;;15.70;9.80;;;;;;;;;;101356;298;24259;-29
2023/06/17 05:21:38;;;;;;;16.50;11.50;;;;;;;;;;101441;285;22585;-33
2023/06/17 05:24:04;;;;;;;19.00;12.50;;;;;;;;;;101456;297;22589;-32
2023/06/17 05:26:30;;;;;;;20.40;12.70;;;;;;;;;;101517;286;22685;-36
2023/06/17 05:28:55;;;;;;;18.30;11.70;;;;;;;;;;101511;298;22677;-36
2023/06/17 05:31:21;;;;;;;23.20;12.20;;;;;;;;;;101361;298;22580;-36
2023/06/17 05:33:46;;;;;;;19.60;11.50;;;;;;;;;;101319;298;22572;-32
2023/06/17 05:36:12;;;;;;;15.00;10.90;;;;;;;;;;101430;298;24070;-33
2023/06/17 05:38:38;;;;;;;17.00;11.90;;;;;;;;;;101408;298;23041;-34
2023/06/17 05:41:03;;;;;;;15.10;12.30;;;;;;;;;;101452;297;22672;-30
2023/06/17 05:43:28;;;;;;;18.70;12.00;;;;;;;;;;101480;298;22889;-35
2023/06/17 05:45:54;;;;;;;14.20;11.30;;;;;;;;;;101343;298;22997;-32
2023/06/17 05:48:19;;;;;;;14.90;10.00;;;;;;;;;;101259;298;24073;-32
2023/06/17 05:50:45;;;;;;;13.20;9.80;;;;;;;;;;101430;298;22760;-35
2023/06/17 05:53:11;;;;;;;15.10;11.10;;;;;;;;;;101356;298;22886;-31
2023/06/17 05:55:36;;;;;;;15.50;11.90;;;;;;;;;;101336;298;22580;-35
2023/06/17 05:58:02;;;;;;;12.60;9.90;;;;;;;;;;101318;298;22889;-31
2023/06/17 06:00:27;;;;;;;11.90;9.30;;;;;;;;;;101380;297;22576;-35
2023/06/17 06:02:53;;;;;;;19.80;8.80;;;;;;;;;;101321;298;23142;-31
2023/06/17 06:05:18;;;;;;;12.00;8.70;;;;;;;;;;101459;298;22579;-37
2023/06/17 06:07:44;;;;;;;7.30;6.60;;;;;;;;;;101405;298;22680;-30
2023/06/17 06:10:10;;;;;;;9.10;7.50;;;;;;;;;;101375;298;22593;-33
2023/06/17 06:12:36;;;;;;;9.00;8.00;;;;;;;;;;101457;298;22700;-34
2023/06/17 06:15:02;;;;;;;12.40;8.50;;;;;;;;;;101392;298;22532;-33
2023/06/17 06:17:28;;;;;;;6.50;4.50;;;;;;;;;;101471;286;22579;-31
2023/06/17 06:19:53;;;;;;;6.80;5.60;;;;;;;;;;101349;298;24134;-32
2023/06/17 06:22:19;;;;;;;5.70;4.20;;;;;;;;;;101492;298;24599;-32
2023/06/17 06:24:45;;;;;;;6.60;5.90;;;;;;;;;;101308;298;24213;-35
2023/06/17 06:27:10;;;;;;;9.10;5.80;;;;;;;;;;101440;298;22577;-35
2023/06/17 06:29:35;;;;;;;7.10;6.10;;;;;;;;;;101329;298;22886;-35
2023/06/17 06:32:01;;;;;;;5.80;5.10;;;;;;;;;;101415;298;22617;-32
2023/06/17 06:34:28;;;;;;;7.90;6.30;;;;;;;;;;101398;298;24146;-33
2023/06/17 06:36:56;;;;;;;9.50;3.80;;;;;;;;;;101441;298;22863;-31
2023/06/17 06:39:22;;;;;;;5.90;5.30;;;;;;;;;;101423;298;22888;-31
2023/06/17 06:41:47;;;;;;;5.00;4.40;;;;;;;;;;101419;297;22850;-36
2023/06/17 06:44:13;;;;;;;9.40;5.40;;;;;;;;;;101433;298;23127;-35
2023/06/17 06:46:39;;;;;;;3.60;3.30;;;;;;;;;;101452;298;22822;-32
2023/06/17 06:49:05;;;;;;;4.50;4.00;;;;;;;;;;101434;298;22676;-35
2023/06/17 06:51:31;;;;;;;5.50;4.40;;;;;;;;;;101385;298;22670;-35
2023/06/17 06:53:57;;;;;;;4.30;3.60;;;;;;;;;;101310;298;22826;-33
2023/06/17 06:56:24;;;;;;;5.30;3.90;;;;;;;;;;101347;298;22823;-30
2023/06/17 06:58:49;;;;;;;4.50;3.70;;;;;;;;;;101409;298;23008;-31
2023/06/17 07:01:15;;;;;;;3.20;2.60;;;;;;;;;;101342;298;22815;-39
2023/06/17 07:03:41;;;;;;;3.90;3.30;;;;;;;;;;101428;298;22668;-32
2023/06/17 07:06:07;;;;;;;4.40;3.90;;;;;;;;;;101398;298;22663;-31
2023/06/17 07:08:33;;;;;;;3.70;3.10;;;;;;;;;;101428;297;23011;-32
2023/06/17 07:10:58;;;;;;;5.00;4.40;;;;;;;;;;101356;298;22888;-35
2023/06/17 07:13:24;;;;;;;5.30;3.60;;;;;;;;;;101415;298;22882;-35
2023/06/17 07:15:49;;;;;;;3.50;3.20;;;;;;;;;;101354;298;24070;-32
2023/06/17 07:18:15;;;;;;;2.20;2.00;;;;;;;;;;101346;299;22660;-32
2023/06/17 07:20:40;;;;;;;3.30;2.90;;;;;;;;;;101463;298;22812;-35
2023/06/17 07:23:06;;;;;;;2.70;2.40;;;;;;;;;;101457;298;22587;-35
2023/06/17 07:25:31;;;;;;;3.30;2.60;;;;;;;;;;101288;298;22577;-35
2023/06/17 07:27:59;;;;;;;2.90;2.50;;;;;;;;;;101289;297;22577;-32
2023/06/17 07:30:28;;;;;;;2.40;1.80;;;;;;;;;;101380;298;22582;-35
2023/06/17 07:32:53;;;;;;;6.40;2.30;;;;;;;;;;101502;298;22591;-34
2023/06/17 07:35:19;;;;;;;2.80;2.50;;;;;;;;;;101458;298;22886;-35
2023/06/17 07:37:45;;;;;;;2.10;1.50;;;;;;;;;;101413;297;22886;-31
2023/06/17 07:40:11;;;;;;;2.10;1.90;;;;;;;;;;101427;298;23041;-32
2023/06/17 07:42:37;;;;;;;2.80;2.30;;;;;;;;;;101354;298;25191;-33
2023/06/17 07:45:04;;;;;;;2.30;2.10;;;;;;;;;;101455;298;23587;-31
2023/06/17 07:47:30;;;;;;;3.00;2.40;;;;;;;;;;101463;298;22585;-33
2023/06/17 07:49:55;;;;;;;2.40;2.10;;;;;;;;;;101304;298;22889;-35
2023/06/17 07:52:21;;;;;;;2.00;1.80;;;;;;;;;;101400;298;22889;-31
2023/06/17 07:54:47;;;;;;;2.30;2.10;;;;;;;;;;101331;297;22883;-32
2023/06/17 07:57:13;;;;;;;3.20;2.00;;;;;;;;;;101328;298;22577;-34
2023/06/17 07:59:41;;;;;;;1.70;1.50;;;;;;;;;;101361;298;22889;-33
2023/06/17 08:02:06;;;;;;;2.40;2.00;;;;;;;;;;101486;298;25171;-32
2023/06/17 08:04:32;;;;;;;2.50;2.30;;;;;;;;;;101408;298;24146;-31
2023/06/17 08:06:57;;;;;;;4.90;1.90;;;;;;;;;;101335;298;22572;-32
2023/06/17 08:09:23;;;;;;;2.30;1.90;;;;;;;;;;101289;298;22668;-31
2023/06/17 08:11:49;;;;;;;3.90;2.60;;;;;;;;;;101399;298;24265;-31
2023/06/17 08:14:15;;;;;;;2.60;2.40;;;;;;;;;;101367;298;22577;-31
2023/06/17 08:16:41;;;;;;;5.00;3.60;;;;;;;;;;101419;298;22578;-31
2023/06/17 08:19:07;;;;;;;3.00;2.70;;;;;;;;;;101472;298;24117;-32
2023/06/17 08:21:34;;;;;;;2.60;2.20;;;;;;;;;;101315;298;22582;-32
2023/06/17 08:24:10;;;;;;;2.00;1.40;;;;;;;;;;101378;297;22618;-31
2023/06/17 08:26:36;;;;;;;2.40;2.00;;;;;;;;;;101425;298;24214;-36
2023/06/17 08:29:02;;;;;;;3.30;2.70;;;;;;;;;;101428;298;22677;-33
2023/06/17 08:31:28;;;;;;;3.10;2.60;;;;;;;;;;101434;297;22614;-32
2023/06/17 08:33:53;;;;;;;2.70;1.80;;;;;;;;;;101407;298;22588;-31
2023/06/17 08:36:20;;;;;;;2.30;1.90;;;;;;;;;;101426;297;22612;-35
2023/06/17 08:38:45;;;;;;;4.60;2.20;;;;;;;;;;101483;298;22654;-31
2023/06/17 08:41:11;;;;;;;2.80;2.60;;;;;;;;;;101393;298;22887;-35
2023/06/17 08:43:36;;;;;;;1.90;1.80;;;;;;;;;;101250;298;22576;-34
2023/06/17 08:46:02;;;;;;;1.80;1.60;;;;;;;;;;101376;298;22575;-31
2023/06/17 08:48:27;;;;;;;2.90;2.40;;;;;;;;;;101351;298;22660;-35
2023/06/17 08:50:53;;;;;;;2.70;1.80;;;;;;;;;;101298;297;22595;-31
2023/06/17 08:53:18;;;;;;;4.90;1.80;;;;;;;;;;101206;298;24264;-31
2023/06/17 08:55:44;;;;;;;2.30;1.20;;;;;;;;;;101331;298;22886;-35
2023/06/17 08:58:10;;;;;;;4.30;3.10;;;;;;;;;;101409;298;24149;-33
2023/06/17 09:00:35;;;;;;;3.60;2.50;;;;;;;;;;101401;298;22661;-35
2023/06/17 09:03:01;;;;;;;2.90;2.40;;;;;;;;;;101343;298;22898;-31
2023/06/17 09:05:26;;;;;;;2.60;2.20;;;;;;;;;;101321;298;22577;-31
2023/06/17 09:07:52;;;;;;;2.50;2.30;;;;;;;;;;101318;298;22963;-35
2023/06/17 09:10:18;;;;;;;2.40;1.70;;;;;;;;;;101315;298;22800;-31
2023/06/17 09:12:43;;;;;;;2.80;2.20;;;;;;;;;;101428;298;22981;-35
2023/06/17 09:15:15;;;;;;;4.20;2.10;;;;;;;;;;101355;298;22577;-31
2023/06/17 09:17:42;;;;;;;3.10;1.80;;;;;;;;;;101375;298;22617;-32
2023/06/17 09:20:10;;;;;;;4.20;3.30;;;;;;;;;;101386;297;22995;-31
2023/06/17 09:22:37;;;;;;;3.10;2.10;;;;;;;;;;101320;286;23013;-35
2023/06/17 09:25:04;;;;;;;1.80;1.20;;;;;;;;;;101332;297;22626;-35
2023/06/17 09:27:29;;;;;;;13.50;2.70;;;;;;;;;;101340;298;24119;-33
2023/06/17 09:30:09;;;;;;;2.60;2.20;;;;;;;;;;101386;298;22573;-36
2023/06/17 09:32:39;;;;;;;1.90;1.70;;;;;;;;;;101360;298;26301;-33
2023/06/17 09:35:05;;;;;;;3.00;2.10;;;;;;;;;;101279;298;22882;-33
2023/06/17 09:37:31;;;;;;;4.40;2.80;;;;;;;;;;101419;298;22895;-35
2023/06/17 09:39:58;;;;;;;3.20;2.90;;;;;;;;;;101402;298;22786;-32
2023/06/17 09:42:30;;;;;;;3.30;2.90;;;;;;;;;;101194;298;22584;-31
2023/06/17 09:44:55;;;;;;;3.30;2.40;;;;;;;;;;101430;297;22693;-37
2023/06/17 09:47:25;;;;;;;3.50;3.00;;;;;;;;;;101344;298;22664;-35
2023/06/17 09:49:52;;;;;;;5.40;2.90;;;;;;;;;;101411;298;22588;-35
2023/06/17 09:52:17;;;;;;;2.70;2.50;;;;;;;;;;101355;286;22578;-35
2023/06/17 09:54:43;;;;;;;3.40;2.60;;;;;;;;;;100750;298;655533;-30
2023/06/17 09:57:09;;;;;;;3.70;2.70;;;;;;;;;;101301;298;22655;-32
2023/06/17 09:59:35;;;;;;;5.60;3.00;;;;;;;;;;101357;298;22668;-34
2023/06/17 10:02:01;;;;;;;4.30;3.40;;;;;;;;;;101391;298;23127;-35
2023/06/17 10:04:27;;;;;;;3.60;2.70;;;;;;;;;;101299;298;22581;-32
2023/06/17 10:06:53;;;;;;;3.60;2.30;;;;;;;;;;101313;297;22576;-35
2023/06/17 10:09:19;;;;;;;4.00;2.90;;;;;;;;;;101261;298;22577;-35
2023/06/17 10:11:45;;;;;;;4.20;2.60;;;;;;;;;;101282;298;22886;-31
2023/06/17 10:14:12;;;;;;;2.80;2.50;;;;;;;;;;101333;298;22586;-31
2023/06/17 10:16:41;;;;;;;5.60;3.30;;;;;;;;;;101343;298;22588;-35
2023/06/17 10:19:07;;;;;;;2.00;1.80;;;;;;;;;;101369;298;22578;-31
2023/06/17 10:21:34;;;;;;;4.50;2.70;;;;;;;;;;101290;289;22676;-34
2023/06/17 10:24:00;;;;;;;2.70;2.40;;;;;;;;;;101306;298;22580;-31
2023/06/17 10:26:28;;;;;;;4.80;2.80;;;;;;;;;;101469;297;24286;-31
2023/06/17 10:29:05;;;;;;;3.30;2.30;;;;;;;;;;101349;298;22598;-31
2023/06/17 10:31:31;;;;;;;2.20;1.70;;;;;;;;;;101323;285;22885;-31
2023/06/17 10:34:00;;;;;;;3.30;2.80;;;;;;;;;;101447;298;26288;-39
2023/06/17 10:36:26;;;;;;;2.10;1.80;;;;;;;;;;101395;298;22663;-35
2023/06/17 10:38:56;;;;;;;3.00;2.50;;;;;;;;;;101387;298;23023;-30
2023/06/17 10:41:22;;;;;;;2.70;2.30;;;;;;;;;;101339;289;22885;-34
2023/06/17 10:43:49;;;;;;;3.10;2.60;;;;;;;;;;101429;298;22885;-30
2023/06/17 10:46:27;;;;;;;3.50;2.80;;;;;;;;;;101377;298;22577;-34
2023/06/17 10:48:57;;;;;;;2.80;2.30;;;;;;;;;;101282;298;22639;-31
2023/06/17 10:51:24;;;;;;;16.80;2.60;;;;;;;;;;101426;298;22886;-31
2023/06/17 10:53:50;;;;;;;4.60;1.70;;;;;;;;;;101362;298;22580;-32
2023/06/17 10:56:16;;;;;;;7.70;1.70;;;;;;;;;;101428;298;22883;-35
2023/06/17 10:58:45;;;;;;;2.60;2.40;;;;;;;;;;101456;298;22844;-35
2023/06/17 11:01:11;;;;;;;2.50;1.80;;;;;;;;;;101406;290;22600;-35
2023/06/17 11:03:37;;;;;;;3.70;2.30;;;;;;;;;;101366;298;23044;-34
2023/06/17 11:06:03;;;;;;;2.50;1.60;;;;;;;;;;101368;298;22573;-34
2023/06/17 11:08:29;;;;;;;2.10;2.00;;;;;;;;;;101375;298;22886;-36
2023/06/17 11:11:07;;;;;;;4.10;2.90;;;;;;;;;;101316;298;22580;-31
2023/06/17 11:13:32;;;;;;;4.50;2.80;;;;;;;;;;101382;298;22588;-35
2023/06/17 11:15:58;;;;;;;2.30;2.10;;;;;;;;;;101355;298;22886;-31
2023/06/17 11:18:23;;;;;;;2.20;1.80;;;;;;;;;;101398;298;22580;-31
2023/06/17 11:20:49;;;;;;;2.70;2.10;;;;;;;;;;101234;297;22582;-39
2023/06/17 11:23:16;;;;;;;2.60;2.40;;;;;;;;;;101352;298;22674;-31
2023/06/17 11:25:41;;;;;;;4.00;1.80;;;;;;;;;;101361;298;22585;-35
2023/06/17 11:28:07;;;;;;;2.00;1.80;;;;;;;;;;101331;286;22585;-31
2023/06/17 11:30:32;;;;;;;2.50;2.30;;;;;;;;;;101335;298;22707;-35
2023/06/17 11:32:58;;;;;;;2.40;2.10;;;;;;;;;;101483;298;22673;-35
2023/06/17 11:35:23;;;;;;;3.40;2.60;;;;;;;;;;101356;298;23045;-36
2023/06/17 11:37:49;;;;;;;3.10;1.90;;;;;;;;;;101379;289;22691;-30
2023/06/17 11:40:16;;;;;;;2.50;2.00;;;;;;;;;;101328;298;25239;-34
2023/06/17 11:42:41;;;;;;;2.30;1.70;;;;;;;;;;101397;298;22884;-31
2023/06/17 11:45:07;;;;;;;7.40;2.70;;;;;;;;;;101345;298;22719;-31
2023/06/17 11:47:34;;;;;;;3.10;2.30;;;;;;;;;;101389;297;24162;-33
2023/06/17 11:49:59;;;;;;;3.80;3.10;;;;;;;;;;101318;298;22885;-34
2023/06/17 11:52:25;;;;;;;2.60;2.20;;;;;;;;;;101358;298;22888;-35
2023/06/17 11:54:51;;;;;;;6.60;2.00;;;;;;;;;;101421;298;22580;-36
2023/06/17 11:57:18;;;;;;;4.30;2.50;;;;;;;;;;101423;298;22665;-31
2023/06/17 11:59:44;;;;;;;3.70;2.10;;;;;;;;;;101318;298;22580;-31
2023/06/17 12:02:10;;;;;;;6.50;5.90;;;;;;;;;;101387;298;22856;-37
2023/06/17 12:04:36;;;;;;;5.90;4.60;;;;;;;;;;101466;298;23015;-35
2023/06/17 12:07:04;;;;;;;4.10;2.60;;;;;;;;;;101388;298;22580;-37
2023/06/17 12:09:34;;;;;;;3.80;2.30;;;;;;;;;;101386;298;24142;-35
2023/06/17 12:12:01;;;;;;;2.70;2.00;;;;;;;;;;101457;298;22580;-31
2023/06/17 12:14:27;;;;;;;4.80;2.30;;;;;;;;;;101299;298;22673;-31
2023/06/17 12:16:53;;;;;;;7.40;2.50;;;;;;;;;;101375;298;22580;-35
2023/06/17 12:19:22;;;;;;;3.40;2.90;;;;;;;;;;101319;297;22588;-35
2023/06/17 12:21:48;;;;;;;4.30;2.90;;;;;;;;;;101333;298;24074;-31
2023/06/17 12:24:14;;;;;;;8.00;6.60;;;;;;;;;;101342;298;22676;-34
2023/06/17 12:26:39;;;;;;;4.50;2.40;;;;;;;;;;101400;297;22796;-32
2023/06/17 12:29:05;;;;;;;13.40;2.40;;;;;;;;;;101327;298;22883;-34
2023/06/17 12:31:31;;;;;;;4.20;3.50;;;;;;;;;;101379;298;22587;-35
2023/06/17 12:33:56;;;;;;;3.60;3.00;;;;;;;;;;101350;298;22581;-37
2023/06/17 13:16:25;;;;;;;3.10;2.50;;;;;;;-97.72;8.57;19794.63;98260;295;1543287;-31
2023/06/17 13:18:50;;;;;;;8.40;3.30;;;;;;;-128.00;-1.00;-1.00;97556;296;1004098;-31
2023/06/17 13:21:16;;;;;;;4.30;3.00;;;;;;;-128.00;-1.00;-1.00;97909;295;1004449;-34
2023/06/17 13:23:42;;;;;;;6.70;2.20;;;;;;;-128.00;-1.00;-1.00;98032;295;1003544;-30
2023/06/17 13:26:09;;;;;;;3.40;3.00;;;;;;;-128.00;-1.00;-1.00;96882;294;1433724;-31
2023/06/17 13:28:36;;;;;;;4.60;3.30;;;;;;;-128.00;-1.00;-1.00;75504;294;7503882;-31
2023/06/17 13:31:02;;;;;;;3.70;2.10;;;;;;;-128.00;-1.00;-1.00;18525;295;7504513;-32
2023/06/17 13:33:31;;;;;;;2.50;2.30;;;;;;;-128.00;-1.00;-1.00;19613;287;7504810;-32
2023/06/17 13:35:57;;;;;;;3.00;2.80;;;;;;;-128.00;-1.00;-1.00;18470;318;7504287;-35
2023/06/17 13:38:22;;;;;;;2.80;2.40;;;;;;;-128.00;-1.00;-1.00;18470;339;7505223;-32
2023/06/17 13:40:49;;;;;;;4.20;3.90;;;;;;;-128.00;-1.00;-1.00;18853;295;7505248;-32
2023/06/17 13:43:16;;;;;;;4.80;3.90;;;;;;;-128.00;-1.00;-1.00;18855;346;7504555;-35
2023/06/17 13:45:41;;;;;;;2.70;2.50;;;;;;;-128.00;-1.00;-1.00;18485;294;7506044;-31
2023/06/17 13:48:07;;;;;;;3.70;3.40;;;;;;;-128.00;-1.00;-1.00;18486;295;7505395;-32
2023/06/17 13:50:33;;;;;;;3.60;3.10;;;;;;;-128.00;-1.00;-1.00;18520;295;7504405;-35
2023/06/17 13:52:59;;;;;;;4.30;3.70;;;;;;;-128.00;-1.00;-1.00;18871;339;7504973;-32
2023/06/17 13:55:25;;;;;;;4.20;3.70;;;;;;;-128.00;-1.00;-1.00;18889;295;7504624;-37
2023/06/17 13:57:51;;;;;;;3.90;3.50;;;;;;;-128.00;-1.00;-1.00;18889;295;7505538;-32
2023/06/17 14:00:18;;;;;;;3.30;2.80;;;;;;;-128.00;-1.00;-1.00;18475;295;7506157;-36
2023/06/17 14:02:43;;;;;;;2.90;2.20;;;;;;;-128.00;-1.00;-1.00;18512;295;7505718;-36
2023/06/17 14:05:09;;;;;;;3.50;3.00;;;;;;;-128.00;-1.00;-1.00;18472;295;7506007;-32
2023/06/17 14:07:35;;;;;;;3.80;3.50;;;;;;;-128.00;-1.00;-1.00;18486;298;7504619;-32
2023/06/17 14:10:01;;;;;;;10.60;5.80;;;;;;;-128.00;-1.00;-1.00;18905;294;7504503;-36
2023/06/17 14:12:27;;;;;;;3.50;3.20;;;;;;;-128.00;-1.00;-1.00;18485;295;7504418;-32
2023/06/17 14:14:53;;;;;;;4.80;4.40;;;;;;;-128.00;-1.00;-1.00;18483;295;7506081;-36
2023/06/17 14:17:21;;;;;;;6.30;4.70;;;;;;;-128.00;-1.00;-1.00;18461;307;7504787;-35
2023/06/17 14:19:48;;;;;;;5.70;4.50;;;;;;;-128.00;-1.00;-1.00;18483;294;7504335;-31
2023/06/17 14:22:14;;;;;;;5.60;4.60;;;;;;;-128.00;-1.00;-1.00;18872;295;7504990;-36
2023/06/17 14:24:40;;;;;;;5.30;4.40;;;;;;;-128.00;-1.00;-1.00;18862;295;7504460;-36
2023/06/17 14:27:36;;;;;;;4.80;4.00;;;;;;;-128.00;-1.00;-1.00;18887;294;7505073;-32
2023/06/17 14:30:03;;;;;;;3.80;3.00;;;;;;;-128.00;-1.00;-1.00;18467;295;7504990;-35
2023/06/17 14:32:29;;;;;;;2.90;2.50;;;;;;;-128.00;-1.00;-1.00;18470;347;7504432;-31
2023/06/17 14:34:55;;;;;;;7.40;4.60;;;;;;;-128.00;-1.00;-1.00;18473;295;7506196;-31
2023/06/17 14:37:20;;;;;;;4.30;3.30;;;;;;;-128.00;-1.00;-1.00;18479;295;7504632;-35
2023/06/17 14:39:46;;;;;;;5.60;5.00;;;;;;;-128.00;-1.00;-1.00;18875;295;7504443;-32
2023/06/17 14:42:12;;;;;;;5.70;4.40;;;;;;;-128.00;-1.00;-1.00;18859;339;7504621;-32
2023/06/17 14:44:39;;;;;;;3.80;3.40;;;;;;;-128.00;-1.00;-1.00;18863;300;7504769;-36
2023/06/17 14:47:06;;;;;;;3.90;3.50;;;;;;;-128.00;-1.00;-1.00;18876;298;7505492;-32
2023/06/17 14:49:32;;;;;;;3.80;2.90;;;;;;;-128.00;-1.00;-1.00;18501;347;7505051;-32
2023/06/17 14:51:58;;;;;;;4.80;4.30;;;;;;;-128.00;-1.00;-1.00;18488;307;7505469;-32
2023/06/17 14:54:23;;;;;;;5.60;4.50;;;;;;;-128.00;-1.00;-1.00;18477;295;7506279;-32
2023/06/17 14:56:49;;;;;;;5.00;3.90;;;;;;;-128.00;-1.00;-1.00;18472;295;7504551;-32
2023/06/17 14:59:15;;;;;;;3.40;3.00;;;;;;;-128.00;-1.00;-1.00;18478;295;7506266;-32
2023/06/17 15:01:41;;;;;;;6.30;5.60;;;;;;;-128.00;-1.00;-1.00;18493;296;7505438;-33
2023/06/17 15:04:07;;;;;;;5.40;4.60;;;;;;;-128.00;-1.00;-1.00;18902;295;7504999;-32
2023/06/17 15:06:34;;;;;;;7.20;3.90;;;;;;;-128.00;-1.00;-1.00;18885;295;7504747;-31